Time;durP1;ratioP1;P1;durP2;ratioP2;P2;SDS_P1;SDS_P2;PMS_P1;PMS_P2;Temp;Humidity;BMP_temperature;BMP_pressure;BME280_temperature;BME280_humidity;BME280_pressure;Samples;Min_cycle;Max_cycle;Signal;HPM_P1;HPM_P2
2021/01/26 00:00:24;;;;;;;19.37;17.40;;;;;;;4.06;60.54;97454.13;8314190;28;20205;-80
2021/01/26 00:04:25;;;;;;;18.67;16.97;;;;;;;3.82;60.48;97447.91;8314968;28;20898;-79
2021/01/26 00:08:28;;;;;;;19.10;17.10;;;;;;;4.02;60.25;97457.66;8316963;28;20237;-79
2021/01/26 00:12:30;;;;;;;18.37;16.57;;;;;;;3.95;60.30;97453.56;8317611;28;20216;-79
2021/01/26 00:16:32;;;;;;;18.83;17.03;;;;;;;4.00;60.11;97460.25;8306062;28;20258;-77
2021/01/26 00:20:34;;;;;;;18.50;16.60;;;;;;;4.04;60.07;97471.28;8300354;28;20227;-78
2021/01/26 00:24:37;;;;;;;17.30;15.70;;;;;;;4.09;60.19;97470.28;8300989;28;20251;-78
2021/01/26 00:28:38;;;;;;;17.50;15.80;;;;;;;4.00;59.82;97477.34;8302260;28;20679;-78
2021/01/26 00:32:40;;;;;;;17.53;15.83;;;;;;;4.08;59.37;97472.88;8300746;28;20232;-78
2021/01/26 00:36:42;;;;;;;16.40;14.83;;;;;;;4.02;59.25;97473.03;8300722;28;20683;-78
2021/01/26 00:40:45;;;;;;;16.00;14.40;;;;;;;4.08;59.28;97480.56;8301711;28;20679;-77
2021/01/26 00:44:46;;;;;;;15.33;13.83;;;;;;;4.05;59.02;97485.75;8300752;28;20348;-78
2021/01/26 00:48:48;;;;;;;14.13;12.77;;;;;;;4.11;59.06;97488.16;8299779;28;20201;-78
2021/01/26 00:52:50;;;;;;;12.33;11.27;;;;;;;4.15;58.56;97486.34;8299555;28;20236;-78
2021/01/26 00:56:53;;;;;;;12.33;11.13;;;;;;;4.02;58.42;97481.56;8298884;28;20212;-78
2021/01/26 01:00:55;;;;;;;11.57;10.47;;;;;;;4.01;58.15;97490.09;8294508;28;20313;-78
2021/01/26 01:04:57;;;;;;;10.60;9.60;;;;;;;4.03;57.86;97484.94;8266127;28;20257;-78
2021/01/26 01:08:58;;;;;;;10.60;9.60;;;;;;;4.04;57.98;97491.78;8267238;28;20234;-77
2021/01/26 01:13:04;;;;;;;10.00;9.10;;;;;;;4.00;56.97;97491.00;8273146;28;20217;-78
2021/01/26 01:17:07;;;;;;;9.93;9.00;;;;;;;4.02;56.99;97494.38;8272495;28;20190;-78
2021/01/26 01:21:09;;;;;;;9.80;8.77;;;;;;;3.95;57.16;97490.28;8273016;28;20210;-78
2021/01/26 01:25:12;;;;;;;9.67;8.70;;;;;;;3.98;56.96;97503.03;8272215;28;20205;-78
2021/01/26 01:29:15;;;;;;;9.43;8.57;;;;;;;3.90;57.09;97497.22;8271607;28;20210;-79
2021/01/26 01:33:16;;;;;;;8.67;7.87;;;;;;;3.85;56.87;97504.22;8271870;28;20205;-77
2021/01/26 01:37:18;;;;;;;9.57;8.60;;;;;;;3.89;56.91;97504.09;8271729;28;20202;-78
2021/01/26 01:41:20;;;;;;;9.20;8.17;;;;;;;3.84;57.08;97505.06;8271679;28;20206;-78
2021/01/26 01:45:24;;;;;;;7.93;7.23;;;;;;;3.70;57.06;97511.38;8271610;28;20210;-78
2021/01/26 01:49:29;;;;;;;8.30;7.60;;;;;;;3.65;57.17;97508.06;8271559;28;20229;-77
2021/01/26 01:53:33;;;;;;;7.87;7.07;;;;;;;3.78;57.23;97503.50;8272270;28;20237;-78
2021/01/26 01:57:40;;;;;;;7.97;7.17;;;;;;;3.76;56.90;97502.69;8270947;28;20205;-77
2021/01/26 02:01:43;;;;;;;8.00;7.27;;;;;;;3.58;56.92;97501.44;8271362;28;20640;-79
2021/01/26 02:05:45;;;;;;;7.73;7.03;;;;;;;3.69;57.08;97496.91;8271123;28;20237;-79
2021/01/26 02:09:50;;;;;;;7.77;7.03;;;;;;;3.59;57.21;97497.97;8271450;28;20229;-78
2021/01/26 02:13:51;;;;;;;8.27;7.57;;;;;;;3.60;57.29;97503.94;8271189;28;20201;-78
2021/01/26 02:18:08;;;;;;;9.23;8.27;;;;;;;3.69;57.34;97507.16;8270240;28;20661;-78
2021/01/26 02:22:38;;;;;;;9.30;8.50;;;;;;;3.76;57.33;97497.56;8270363;28;20205;-78
2021/01/26 02:27:03;;;;;;;9.97;9.07;;;;;;;3.74;57.35;97501.91;8270911;28;20208;-78
2021/01/26 02:31:19;;;;;;;10.73;9.83;;;;;;;3.64;57.38;97498.72;8271429;28;20665;-78
2021/01/26 02:35:38;;;;;;;10.77;9.77;;;;;;;3.66;57.67;97501.25;8270308;28;20288;-78
2021/01/26 02:39:48;;;;;;;12.30;11.10;;;;;;;3.65;57.72;97505.50;8270394;28;20198;-78
2021/01/26 02:44:02;;;;;;;12.00;10.90;;;;;;;3.58;57.75;97511.69;8271583;28;20541;-78
2021/01/26 02:48:42;;;;;;;12.67;11.17;;;;;;;3.62;57.66;97513.28;8270281;28;20233;-78
2021/01/26 02:52:53;;;;;;;12.20;11.00;;;;;;;3.60;57.68;97507.38;8266312;28;20232;-78
2021/01/26 02:57:02;;;;;;;13.10;11.90;;;;;;;3.58;57.04;97505.69;8269004;28;20194;-78
2021/01/26 03:01:05;;;;;;;13.63;12.23;;;;;;;3.47;57.36;97503.41;8275087;28;20201;-78
2021/01/26 03:05:11;;;;;;;12.80;11.60;;;;;;;3.45;57.46;97500.03;8303833;28;20225;-79
2021/01/26 03:09:16;;;;;;;12.93;11.73;;;;;;;3.49;57.09;97505.03;8309211;28;20208;-79
2021/01/26 03:13:21;;;;;;;13.20;12.00;;;;;;;3.37;56.65;97497.66;8308938;28;20208;-79
2021/01/26 03:17:29;;;;;;;13.43;12.23;;;;;;;3.47;56.83;97490.59;8308298;28;20216;-79
2021/01/26 03:21:32;;;;;;;14.57;13.27;;;;;;;3.33;56.72;97483.22;8309706;28;20241;-79
2021/01/26 03:25:37;;;;;;;14.10;12.80;;;;;;;3.25;56.92;97480.84;8308831;28;20201;-78
2021/01/26 03:29:43;;;;;;;13.20;12.00;;;;;;;3.36;56.42;97498.53;8304267;28;20225;-79
2021/01/26 03:33:47;;;;;;;14.03;12.73;;;;;;;3.31;56.26;97483.28;8304666;28;20216;-78
2021/01/26 03:37:52;;;;;;;13.10;11.80;;;;;;;3.47;56.07;97491.44;8303659;28;20197;-78
2021/01/26 03:41:54;;;;;;;14.00;12.60;;;;;;;3.50;55.67;97490.50;8304412;28;20208;-79
2021/01/26 03:46:01;;;;;;;13.93;12.67;;;;;;;3.43;55.68;97492.41;8303870;28;20204;-79
2021/01/26 03:50:26;;;;;;;15.07;13.60;;;;;;;3.47;55.76;97504.25;8303945;28;20220;-79
2021/01/26 03:54:33;;;;;;;15.33;13.83;;;;;;;3.46;56.10;97502.53;8307701;28;20193;-79
2021/01/26 03:58:44;;;;;;;15.50;14.00;;;;;;;3.46;55.72;97505.09;8309079;28;20209;-79
2021/01/26 04:03:00;;;;;;;14.37;13.07;;;;;;;3.43;55.97;97502.63;8283246;28;20216;-78
2021/01/26 04:07:05;;;;;;;15.10;13.70;;;;;;;3.47;56.40;97505.97;8270743;28;20269;-79
2021/01/26 04:11:12;;;;;;;15.23;13.80;;;;;;;3.30;56.96;97504.63;8270774;28;20229;-78
2021/01/26 04:15:20;;;;;;;16.23;14.73;;;;;;;3.33;56.80;97507.13;8272236;28;20190;-79
2021/01/26 04:19:27;;;;;;;15.80;14.33;;;;;;;3.28;57.92;97508.09;8270004;28;20684;-78
2021/01/26 04:23:29;;;;;;;15.87;14.37;;;;;;;3.37;57.98;97504.47;8267430;28;20638;-78
2021/01/26 04:27:31;;;;;;;17.33;15.63;;;;;;;3.44;58.39;97503.47;8266812;28;20205;-78
2021/01/26 04:31:33;;;;;;;16.73;15.13;;;;;;;3.43;58.37;97510.31;8267622;28;20237;-78
2021/01/26 04:35:36;;;;;;;17.27;15.63;;;;;;;3.25;59.22;97508.16;8266767;28;20210;-78
2021/01/26 04:39:38;;;;;;;17.97;16.27;;;;;;;3.36;59.25;97515.59;8267564;28;20212;-78
2021/01/26 04:43:45;;;;;;;16.83;15.23;;;;;;;3.29;59.70;97517.44;8268606;28;20201;-78
2021/01/26 04:47:51;;;;;;;17.67;15.97;;;;;;;3.49;59.59;97514.44;8273629;28;20540;-78
2021/01/26 04:52:00;;;;;;;16.73;15.13;;;;;;;3.38;59.89;97513.84;8273381;28;20316;-78
2021/01/26 04:56:07;;;;;;;16.87;15.23;;;;;;;3.49;59.91;97515.28;8273777;28;20254;-79
2021/01/26 05:00:21;;;;;;;16.37;14.83;;;;;;;3.26;60.86;97499.63;8273140;28;20252;-78
2021/01/26 05:04:28;;;;;;;17.17;15.47;;;;;;;3.39;60.76;97510.41;8273186;28;20209;-78
2021/01/26 05:08:33;;;;;;;16.77;15.07;;;;;;;3.35;61.02;97512.22;8273106;28;20268;-78
2021/01/26 05:12:40;;;;;;;15.67;14.07;;;;;;;3.40;61.84;97502.69;8272017;28;20226;-78
2021/01/26 05:16:47;;;;;;;15.73;14.13;;;;;;;3.47;61.94;97509.34;8272400;28;20201;-77
2021/01/26 05:20:54;;;;;;;13.23;11.93;;;;;;;3.43;62.42;97502.63;8273038;28;20198;-77
2021/01/26 05:25:00;;;;;;;23.60;19.60;;;;;;;3.36;62.83;97503.63;8272317;28;20212;-78
2021/01/26 05:29:04;;;;;;;20.43;17.03;;;;;;;3.45;62.53;97500.88;8274285;28;20205;-78
2021/01/26 05:33:08;;;;;;;14.27;12.87;;;;;;;3.41;62.75;97503.53;8275144;28;20267;-79
2021/01/26 05:37:12;;;;;;;13.57;12.13;;;;;;;3.51;62.41;97494.78;8273165;28;20583;-78
2021/01/26 05:41:18;;;;;;;12.83;11.57;;;;;;;3.55;62.45;97500.66;8275892;28;20206;-80
2021/01/26 05:45:23;;;;;;;13.27;11.97;;;;;;;3.51;62.54;97498.16;8272523;28;20213;-79
2021/01/26 05:49:36;;;;;;;13.10;11.30;;;;;;;3.58;62.91;97504.00;8280877;28;20623;-77
2021/01/26 05:53:37;;;;;;;13.20;11.87;;;;;;;3.43;62.80;97499.25;8271595;28;20205;-78
2021/01/26 05:57:40;;;;;;;13.00;11.73;;;;;;;3.55;62.94;97500.66;8271009;28;20209;-79
2021/01/26 06:01:42;;;;;;;11.67;10.53;;;;;;;3.59;62.40;97505.66;8281744;28;20216;-78
2021/01/26 06:05:58;;;;;;;12.13;10.87;;;;;;;3.51;62.53;97515.25;8303805;28;20291;-78
2021/01/26 06:10:18;;;;;;;13.30;11.90;;;;;;;3.65;62.16;97502.94;8303563;28;20319;-79
2021/01/26 06:14:21;;;;;;;12.00;10.80;;;;;;;3.53;62.19;97503.25;8303377;28;20657;-78
2021/01/26 06:18:23;;;;;;;13.27;11.97;;;;;;;3.61;61.96;97505.63;8303249;28;20201;-78
2021/01/26 06:22:27;;;;;;;14.30;12.80;;;;;;;3.36;62.46;97513.88;8304073;28;20300;-78
2021/01/26 06:26:34;;;;;;;14.07;12.60;;;;;;;3.40;63.01;97517.22;8306141;28;20209;-78
2021/01/26 06:30:46;;;;;;;12.43;11.10;;;;;;;3.45;62.62;97526.47;8306112;28;20220;-78
2021/01/26 06:35:07;;;;;;;13.50;11.93;;;;;;;3.50;62.64;97528.91;8301503;28;20194;-79
2021/01/26 06:39:38;;;;;;;14.67;13.17;;;;;;;3.33;63.19;97532.72;8301670;28;20209;-78
2021/01/26 06:43:57;;;;;;;16.17;14.10;;;;;;;3.56;62.69;97541.59;8302064;28;20201;-78
2021/01/26 06:48:32;;;;;;;13.30;11.90;;;;;;;3.39;62.95;97543.69;8302131;28;20197;-78
2021/01/26 06:52:56;;;;;;;13.33;11.93;;;;;;;3.49;62.77;97534.94;8278265;28;20217;-79
2021/01/26 06:57:21;;;;;;;14.80;12.73;;;;;;;3.49;62.55;97537.50;8294249;28;20576;-78
2021/01/26 07:01:58;;;;;;;12.33;10.03;;;;;;;3.34;63.50;97531.00;8269735;28;20212;-78
2021/01/26 07:06:04;;;;;;;12.33;11.00;;;;;;;3.49;63.18;97519.56;8313588;28;20264;-79
2021/01/26 07:10:10;;;;;;;10.07;9.07;;;;;;;3.40;63.20;97530.00;8302766;28;20225;-78
2021/01/26 07:14:24;;;;;;;10.00;9.00;;;;;;;3.24;63.85;97520.13;8302483;28;20196;-78
2021/01/26 07:18:51;;;;;;;9.07;8.17;;;;;;;3.25;63.24;97524.34;8300439;28;20193;-78
2021/01/26 07:23:25;;;;;;;9.27;8.30;;;;;;;3.46;63.05;97530.69;8258623;28;20211;-78
2021/01/26 07:27:57;;;;;;;9.70;8.70;;;;;;;3.35;63.16;97517.34;8281590;28;20204;-77
2021/01/26 07:32:03;;;;;;;12.00;10.70;;;;;;;3.46;63.86;97529.88;8300587;28;20235;-78
2021/01/26 07:36:09;;;;;;;10.10;9.10;;;;;;;3.56;63.61;97531.34;8304458;28;20201;-78
2021/01/26 07:40:21;;;;;;;11.23;10.00;;;;;;;3.43;63.46;97523.13;8328792;28;20591;-78
2021/01/26 07:44:26;;;;;;;12.50;10.77;;;;;;;3.60;63.36;97537.22;8333913;28;20200;-76
2021/01/26 07:48:34;;;;;;;10.93;9.60;;;;;;;3.53;63.59;97532.25;8301892;28;20197;-76
2021/01/26 07:52:37;;;;;;;10.27;9.13;;;;;;;3.55;63.87;97533.94;8300221;28;20245;-77
2021/01/26 07:56:41;;;;;;;14.07;9.60;;;;;;;3.50;64.14;97539.16;8299586;28;20208;-77
2021/01/26 08:00:46;;;;;;;11.43;9.40;;;;;;;3.63;63.29;97535.44;8300368;28;20201;-78
2021/01/26 08:04:48;;;;;;;11.80;9.40;;;;;;;3.49;64.41;97540.88;8301827;28;20704;-77
2021/01/26 08:08:56;;;;;;;11.33;9.63;;;;;;;3.51;64.46;97526.31;8300442;28;20228;-77
2021/01/26 08:12:59;;;;;;;11.00;8.97;;;;;;;3.75;63.66;97546.28;8301630;28;20233;-77
2021/01/26 08:17:02;;;;;;;11.33;9.40;;;;;;;3.79;63.19;97530.81;8301976;28;20576;-77
2021/01/26 08:21:27;;;;;;;10.63;8.87;;;;;;;3.78;62.71;97535.97;8312908;28;20287;-77
2021/01/26 08:25:31;;;;;;;10.73;8.93;;;;;;;3.70;62.52;97536.97;8314059;28;20193;-79
2021/01/26 08:29:55;;;;;;;11.37;9.47;;;;;;;4.00;62.38;97534.56;8307795;28;20197;-78
2021/01/26 08:34:36;;;;;;;12.33;9.03;;;;;;;4.06;62.21;97541.25;8306176;28;20209;-78
2021/01/26 08:38:50;;;;;;;11.47;8.40;;;;;;;3.95;62.42;97554.31;8310577;28;20197;-78
2021/01/26 08:42:56;;;;;;;10.73;8.00;;;;;;;3.94;63.18;97547.53;8317850;28;20193;-78
2021/01/26 08:46:59;;;;;;;17.77;7.53;;;;;;;6.40;88.85;97555.78;8323288;28;20220;-79
2021/01/26 08:51:06;;;;;;;17.10;7.53;;;;;;;8.32;70.97;97546.81;8328841;28;20524;-80
2021/01/26 08:55:08;;;;;;;9.03;7.97;;;;;;;7.12;57.22;97546.38;8320163;28;20205;-77
2021/01/26 08:59:13;;;;;;;13.30;7.87;;;;;;;5.92;58.55;97553.06;8310723;28;20239;-77
2021/01/26 09:03:37;;;;;;;9.20;7.00;;;;;;;5.10;60.06;97568.38;8312321;28;20292;-76
2021/01/26 09:07:50;;;;;;;8.83;7.33;;;;;;;4.97;60.58;97561.91;8280929;28;20248;-77
2021/01/26 09:11:53;;;;;;;8.93;7.03;;;;;;;4.72;60.41;97577.16;8300972;28;20225;-77
2021/01/26 09:15:59;;;;;;;8.77;6.67;;;;;;;4.51;60.83;97579.41;8283194;28;20208;-76
2021/01/26 09:20:09;;;;;;;8.93;6.73;;;;;;;4.69;60.39;97571.22;8311900;28;20711;-77
2021/01/26 09:24:11;;;;;;;9.50;6.87;;;;;;;4.65;61.04;97584.19;8313010;28;20225;-77
2021/01/26 09:28:16;;;;;;;10.83;6.60;;;;;;;4.56;61.22;97582.69;8312929;28;20213;-76
2021/01/26 09:32:19;;;;;;;8.00;6.07;;;;;;;4.68;60.53;97590.06;8305341;28;20229;-75
2021/01/26 09:36:22;;;;;;;9.77;6.10;;;;;;;4.67;60.86;97588.38;8306130;28;20208;-76
2021/01/26 09:40:24;;;;;;;11.20;6.70;;;;;;;4.35;61.74;97593.50;8304191;28;20672;-77
2021/01/26 09:44:26;;;;;;;8.67;6.23;;;;;;;4.58;60.57;97600.59;8310879;28;20229;-77
2021/01/26 09:48:35;;;;;;;6.90;5.70;;;;;;;4.74;60.41;97604.47;8282165;28;20206;-76
2021/01/26 09:52:38;;;;;;;7.40;5.67;;;;;;;4.78;59.38;97618.03;8301718;28;20229;-76
2021/01/26 09:56:40;;;;;;;8.73;5.87;;;;;;;4.72;60.21;97597.66;8309454;28;20198;-76
2021/01/26 10:00:42;;;;;;;8.90;5.10;;;;;;;4.88;59.98;97620.31;8305293;28;20205;-77
2021/01/26 10:04:44;;;;;;;7.87;5.20;;;;;;;4.89;59.56;97618.56;8306875;28;20236;-76
2021/01/26 10:09:13;;;;;;;7.53;5.50;;;;;;;5.15;58.80;97617.03;8305930;28;20241;-76
2021/01/26 10:13:36;;;;;;;9.33;5.00;;;;;;;4.91;59.24;97629.63;8305459;28;20220;-78
2021/01/26 10:17:46;;;;;;;8.33;5.40;;;;;;;4.48;60.44;97636.75;8299223;28;20212;-77
2021/01/26 10:21:48;;;;;;;9.70;5.70;;;;;;;4.63;60.76;97632.13;8303801;28;20209;-77
2021/01/26 10:25:52;;;;;;;9.70;5.80;;;;;;;4.57;60.76;97647.63;8304048;28;20197;-76
2021/01/26 10:30:10;;;;;;;8.97;5.17;;;;;;;4.83;59.80;97642.69;8302808;28;20233;-77
2021/01/26 10:34:24;;;;;;;5.67;4.70;;;;;;;4.69;60.29;97644.78;8310630;28;20200;-77
2021/01/26 10:38:27;;;;;;;8.17;4.60;;;;;;;4.53;62.30;97646.03;8305247;28;20197;-77
2021/01/26 10:42:31;;;;;;;6.70;4.97;;;;;;;4.65;61.82;97640.63;8304815;28;20256;-77
2021/01/26 10:46:36;;;;;;;7.57;5.00;;;;;;;4.86;61.01;97639.22;8304295;28;20213;-77
2021/01/26 10:50:37;;;;;;;6.67;4.80;;;;;;;4.83;61.08;97646.97;8303102;28;20602;-77
2021/01/26 10:54:39;;;;;;;7.83;5.37;;;;;;;4.88;60.46;97647.69;8295855;28;20233;-77
2021/01/26 10:58:42;;;;;;;11.73;4.60;;;;;;;4.97;60.05;97651.72;8302898;28;20213;-77
2021/01/26 11:02:44;;;;;;;7.93;4.90;;;;;;;4.91;60.32;97663.00;8304538;28;20660;-77
2021/01/26 11:06:46;;;;;;;8.73;4.73;;;;;;;4.80;60.23;97660.72;8307611;28;20236;-77
2021/01/26 11:10:48;;;;;;;8.70;4.53;;;;;;;4.88;60.66;97656.22;8291591;28;20442;-77
2021/01/26 11:14:54;;;;;;;6.57;4.47;;;;;;;4.80;61.05;97672.72;8281729;28;20213;-77
2021/01/26 11:18:56;;;;;;;9.10;4.53;;;;;;;4.53;60.61;97661.41;8303177;28;20209;-76
2021/01/26 11:22:58;;;;;;;6.90;4.83;;;;;;;4.83;61.15;97667.50;8304531;28;20227;-77
2021/01/26 11:27:00;;;;;;;7.40;4.67;;;;;;;4.78;60.53;97671.91;8304013;28;20224;-77
2021/01/26 11:31:03;;;;;;;8.80;5.07;;;;;;;4.99;60.20;97662.78;8305845;28;20680;-76
2021/01/26 11:35:07;;;;;;;8.63;4.00;;;;;;;4.83;60.50;97663.19;8305568;28;20312;-77
2021/01/26 11:39:09;;;;;;;6.17;4.17;;;;;;;4.69;61.29;97663.56;8307786;28;20205;-77
2021/01/26 11:43:12;;;;;;;6.10;3.80;;;;;;;4.73;61.28;97668.63;8303734;28;20585;-77
2021/01/26 11:47:14;;;;;;;8.20;4.23;;;;;;;4.70;61.30;97682.34;8305319;28;20209;-77
2021/01/26 11:51:16;;;;;;;7.47;4.63;;;;;;;4.68;61.85;97690.13;8305214;28;20221;-78
2021/01/26 11:55:20;;;;;;;7.27;3.70;;;;;;;4.50;61.90;97677.75;8303497;28;20232;-76
2021/01/26 11:59:22;;;;;;;6.83;4.53;;;;;;;4.30;62.47;97684.19;8303383;28;20679;-77
2021/01/26 12:03:25;;;;;;;7.07;4.13;;;;;;;4.39;62.84;97689.97;8304212;28;20664;-77
2021/01/26 12:07:27;;;;;;;9.47;4.70;;;;;;;4.36;62.78;97703.72;8303905;28;20236;-78
2021/01/26 12:11:30;;;;;;;10.37;4.27;;;;;;;4.42;62.16;97695.88;8301757;28;20228;-77
2021/01/26 12:15:34;;;;;;;7.17;4.00;;;;;;;4.53;61.70;97693.03;8300909;28;20193;-77
2021/01/26 12:19:40;;;;;;;7.03;3.90;;;;;;;4.61;61.52;97701.41;8302673;28;20243;-77
2021/01/26 12:23:48;;;;;;;6.90;3.80;;;;;;;4.42;61.79;97690.75;8302122;28;20201;-77
2021/01/26 12:27:53;;;;;;;7.63;3.90;;;;;;;4.32;62.29;97704.66;8299950;28;20623;-77
2021/01/26 12:31:54;;;;;;;6.77;3.50;;;;;;;4.02;63.38;97701.94;8302130;28;20232;-77
2021/01/26 12:35:57;;;;;;;5.93;3.93;;;;;;;4.20;62.56;97694.69;8301608;28;20292;-78
2021/01/26 12:39:59;;;;;;;9.73;4.20;;;;;;;4.43;61.88;97700.09;8300675;28;20197;-78
2021/01/26 12:44:02;;;;;;;7.73;3.90;;;;;;;4.24;62.85;97706.56;8300384;28;20212;-78
2021/01/26 12:48:04;;;;;;;7.65;4.03;;;;;;;4.61;61.83;97703.97;8301482;28;20427;-78
2021/01/26 12:52:07;;;;;;;9.83;6.10;;;;;;;4.22;62.63;97710.88;8301151;28;20221;-77
2021/01/26 12:56:09;;;;;;;7.47;4.37;;;;;;;4.30;62.63;97711.53;8299047;28;20202;-78
2021/01/26 13:00:15;;;;;;;8.57;4.40;;;;;;;4.37;62.69;97723.34;8299466;28;20198;-77
2021/01/26 13:04:17;;;;;;;7.67;3.50;;;;;;;4.30;62.83;97721.78;8301098;28;20204;-77
2021/01/26 13:08:20;;;;;;;8.87;3.60;;;;;;;4.11;63.33;97718.78;8306350;28;20229;-77
2021/01/26 13:12:24;;;;;;;6.80;3.83;;;;;;;4.27;62.53;97717.59;8305188;28;20221;-77
2021/01/26 13:16:26;;;;;;;6.40;3.90;;;;;;;4.22;62.94;97732.22;8305571;28;20568;-78
2021/01/26 13:20:28;;;;;;;10.60;4.10;;;;;;;4.35;62.54;97721.69;8305559;28;20212;-78
2021/01/26 13:24:34;;;;;;;9.17;4.80;;;;;;;4.05;63.76;97735.16;8305172;28;20193;-77
2021/01/26 13:28:35;;;;;;;7.70;3.43;;;;;;;4.25;62.95;97736.44;8305982;28;20208;-77
2021/01/26 13:32:37;;;;;;;8.93;4.50;;;;;;;4.16;62.95;97734.94;8305267;28;20229;-77
2021/01/26 13:36:39;;;;;;;7.63;4.30;;;;;;;4.21;63.37;97730.56;8305040;28;20208;-78
2021/01/26 13:40:42;;;;;;;7.70;4.33;;;;;;;3.98;63.80;97750.69;8305290;28;20212;-77
2021/01/26 13:44:47;;;;;;;6.13;3.50;;;;;;;3.95;64.10;97749.06;8305258;28;20677;-77
2021/01/26 13:48:49;;;;;;;7.37;4.20;;;;;;;3.88;64.85;97752.59;8305718;28;20197;-77
2021/01/26 13:52:50;;;;;;;5.30;3.60;;;;;;;4.06;63.81;97741.97;8305035;28;20939;-77
2021/01/26 13:56:53;;;;;;;6.47;4.27;;;;;;;4.33;65.48;97754.22;8305463;28;20222;-79
2021/01/26 14:00:55;;;;;;;7.73;4.13;;;;;;;4.24;64.45;97755.25;8307172;28;20201;-77
2021/01/26 14:04:57;;;;;;;9.37;5.03;;;;;;;4.05;64.70;97773.59;8304840;28;20235;-77
2021/01/26 14:09:00;;;;;;;8.77;4.53;;;;;;;4.03;64.73;97775.34;8304462;28;20237;-77
2021/01/26 14:13:04;;;;;;;6.13;3.80;;;;;;;3.97;64.51;97783.16;8304775;28;20569;-77
2021/01/26 14:17:06;;;;;;;8.63;4.80;;;;;;;4.02;64.79;97786.50;8303204;28;20197;-77
2021/01/26 14:21:07;;;;;;;10.07;6.10;;;;;;;3.96;65.78;97796.88;8304460;28;21054;-77
2021/01/26 14:25:12;;;;;;;8.50;4.97;;;;;;;4.03;65.92;97788.16;8302982;28;20201;-77
2021/01/26 14:29:15;;;;;;;6.47;4.67;;;;;;;4.06;65.51;97787.28;8303292;28;20574;-77
2021/01/26 14:33:17;;;;;;;10.77;5.03;;;;;;;4.16;64.93;97793.88;8301340;28;20237;-77
2021/01/26 14:37:19;;;;;;;9.97;5.20;;;;;;;4.09;65.10;97800.00;8301542;28;20284;-77
2021/01/26 14:41:21;;;;;;;7.07;4.37;;;;;;;4.13;65.21;97806.75;8301264;28;20205;-77
2021/01/26 14:45:24;;;;;;;4.40;3.63;;;;;;;3.79;66.75;97806.59;8301491;28;20212;-76
2021/01/26 14:49:26;;;;;;;7.17;3.13;;;;;;;3.77;66.57;97805.78;8299401;28;20956;-77
2021/01/26 14:53:28;;;;;;;5.70;3.33;;;;;;;3.94;65.98;97813.13;8302331;28;20256;-77
2021/01/26 14:57:30;;;;;;;6.13;3.63;;;;;;;3.94;65.60;97819.13;8302222;28;20284;-77
2021/01/26 15:01:33;;;;;;;5.83;3.30;;;;;;;3.88;65.50;97835.47;8301683;28;20209;-77
2021/01/26 15:05:35;;;;;;;5.60;3.40;;;;;;;3.96;65.12;97835.31;8301393;28;20614;-77
2021/01/26 15:09:37;;;;;;;6.57;3.13;;;;;;;3.81;65.12;97833.88;8301252;28;20200;-77
2021/01/26 15:13:39;;;;;;;7.17;3.70;;;;;;;3.69;65.31;97834.09;8301549;28;20229;-77
2021/01/26 15:17:41;;;;;;;6.93;3.30;;;;;;;3.66;66.21;97835.00;8301024;28;20687;-77
2021/01/26 15:21:44;;;;;;;8.10;3.40;;;;;;;3.84;65.93;97844.06;8303232;28;20232;-76
2021/01/26 15:25:46;;;;;;;5.53;3.33;;;;;;;3.88;65.29;97840.59;8303288;28;20243;-77
2021/01/26 15:29:47;;;;;;;5.17;3.13;;;;;;;3.95;65.49;97858.38;8304051;28;20715;-77
2021/01/26 15:33:50;;;;;;;4.37;3.03;;;;;;;4.09;64.64;97851.25;8306651;28;20239;-76
2021/01/26 15:37:56;;;;;;;7.53;4.93;;;;;;;3.91;64.42;97855.88;8304545;28;20205;-76
2021/01/26 15:41:58;;;;;;;9.63;4.77;;;;;;;3.91;65.01;97861.00;8302166;28;20209;-77
2021/01/26 15:46:00;;;;;;;8.67;3.90;;;;;;;4.04;64.85;97863.34;8301727;28;20197;-76
2021/01/26 15:50:03;;;;;;;5.53;3.50;;;;;;;3.95;64.54;97863.50;8301875;28;20192;-77
2021/01/26 15:54:05;;;;;;;6.20;3.33;;;;;;;3.85;64.35;97865.41;8301867;28;20696;-78
2021/01/26 15:58:07;;;;;;;5.30;3.40;;;;;;;3.82;65.15;97861.19;8290292;28;20209;-77
2021/01/26 16:02:09;;;;;;;6.70;2.90;;;;;;;3.73;64.90;97863.91;8301687;28;20680;-77
2021/01/26 16:06:13;;;;;;;7.83;3.47;;;;;;;3.79;64.86;97868.94;8305221;28;20710;-78
2021/01/26 16:10:16;;;;;;;7.53;5.17;;;;;;;3.69;65.58;97878.50;8306538;28;20296;-79
2021/01/26 16:14:18;;;;;;;8.37;4.10;;;;;;;3.62;65.70;97888.88;8307096;28;20228;-78
2021/01/26 16:18:20;;;;;;;7.63;4.20;;;;;;;3.57;65.68;97885.56;8307692;28;20227;-79
2021/01/26 16:22:23;;;;;;;7.30;4.00;;;;;;;3.45;66.50;97909.66;8303290;28;20216;-78
2021/01/26 16:26:25;;;;;;;7.10;3.90;;;;;;;3.49;66.51;97911.31;8302976;28;20201;-77
2021/01/26 16:30:27;;;;;;;8.53;3.97;;;;;;;3.58;66.28;97916.25;8295394;28;20573;-77
2021/01/26 16:34:29;;;;;;;7.63;4.17;;;;;;;3.46;66.32;97921.56;8300856;28;20539;-77
2021/01/26 16:38:32;;;;;;;6.40;4.00;;;;;;;3.46;66.69;97926.69;8301603;28;20701;-77
2021/01/26 16:42:34;;;;;;;7.20;3.97;;;;;;;3.42;66.89;97933.59;8307686;28;20276;-77
2021/01/26 16:46:36;;;;;;;6.00;4.20;;;;;;;3.52;66.28;97939.38;8307672;28;20548;-77
2021/01/26 16:50:38;;;;;;;7.90;4.77;;;;;;;3.61;65.77;97943.53;8306988;28;20225;-76
2021/01/26 16:54:40;;;;;;;9.87;5.23;;;;;;;3.72;65.93;97949.31;8306880;28;20236;-76
2021/01/26 16:58:46;;;;;;;10.50;5.70;;;;;;;3.70;65.77;97951.06;8306994;28;20545;-76
2021/01/26 17:02:48;;;;;;;9.03;4.57;;;;;;;3.69;65.34;97950.22;8306556;28;20197;-77
2021/01/26 17:06:50;;;;;;;11.97;6.07;;;;;;;3.56;65.88;97963.25;8306365;28;20591;-77
2021/01/26 17:10:54;;;;;;;8.97;4.47;;;;;;;3.71;65.47;97966.41;8306394;28;20193;-76
2021/01/26 17:14:55;;;;;;;10.53;5.40;;;;;;;3.73;65.34;97963.78;8308157;28;20221;-77
2021/01/26 17:18:57;;;;;;;8.37;4.73;;;;;;;3.85;64.66;97975.56;8306297;28;20204;-77
2021/01/26 17:22:59;;;;;;;8.23;4.90;;;;;;;3.82;64.42;97971.31;8306745;28;20216;-77
2021/01/26 17:27:02;;;;;;;7.67;5.30;;;;;;;3.74;65.11;97978.31;8306584;28;20205;-76
2021/01/26 17:31:04;;;;;;;10.27;4.77;;;;;;;3.65;65.59;97984.41;8306636;28;20205;-77
2021/01/26 17:35:07;;;;;;;10.60;6.57;;;;;;;3.61;65.39;97987.06;8306499;28;20205;-76
2021/01/26 17:39:10;;;;;;;11.50;6.30;;;;;;;3.77;64.90;97985.97;8306507;28;20215;-77
2021/01/26 17:43:28;;;;;;;9.07;5.30;;;;;;;3.94;64.87;97997.63;8305948;28;20211;-77
2021/01/26 17:47:32;;;;;;;8.90;4.93;;;;;;;3.94;64.43;97998.47;8306050;28;20212;-77
2021/01/26 17:51:35;;;;;;;10.90;5.20;;;;;;;3.95;64.58;98017.25;8304373;28;20692;-77
2021/01/26 17:55:40;;;;;;;12.33;5.93;;;;;;;4.00;64.45;98018.00;8300062;28;20220;-77
2021/01/26 17:59:42;;;;;;;16.53;6.53;;;;;;;3.82;64.51;98014.88;8296772;28;20571;-77
2021/01/26 18:03:47;;;;;;;8.73;5.40;;;;;;;3.99;64.64;98019.72;8302584;28;20283;-77
2021/01/26 18:07:50;;;;;;;7.63;5.70;;;;;;;3.89;64.83;98019.03;8304813;28;20243;-76
2021/01/26 18:11:54;;;;;;;7.10;5.13;;;;;;;3.99;64.75;98027.41;8305235;28;20688;-77
2021/01/26 18:15:57;;;;;;;8.67;5.93;;;;;;;4.07;64.16;98024.72;8304915;28;20201;-78
2021/01/26 18:19:59;;;;;;;7.80;5.43;;;;;;;3.79;65.22;98030.31;8305479;28;20672;-76
2021/01/26 18:24:02;;;;;;;8.13;5.57;;;;;;;3.90;64.86;98040.38;8303240;28;20213;-76
2021/01/26 18:28:04;;;;;;;13.97;6.93;;;;;;;4.65;74.92;98046.75;8303701;28;20217;-76
2021/01/26 18:32:07;;;;;;;10.03;6.30;;;;;;;4.07;65.50;98048.66;8303404;28;20575;-76
2021/01/26 18:36:09;;;;;;;9.10;6.70;;;;;;;4.17;65.36;98045.91;8303561;28;20637;-76
2021/01/26 18:40:15;;;;;;;11.17;7.33;;;;;;;4.00;64.82;98052.19;8303414;28;20201;-76
2021/01/26 18:44:17;;;;;;;13.00;6.90;;;;;;;4.00;64.87;98052.19;8303463;28;20205;-76
2021/01/26 18:48:21;;;;;;;12.03;6.07;;;;;;;4.03;65.22;98062.38;8302457;28;20205;-76
2021/01/26 18:52:24;;;;;;;11.23;7.37;;;;;;;4.02;65.22;98070.09;8302153;28;20312;-76
2021/01/26 18:56:27;;;;;;;9.47;6.97;;;;;;;4.02;65.58;98070.94;8302790;28;20197;-76
2021/01/26 19:00:29;;;;;;;10.50;7.10;;;;;;;3.97;65.30;98072.72;8302726;28;20197;-76
2021/01/26 19:04:31;;;;;;;7.80;6.53;;;;;;;4.19;65.09;98065.53;8302646;28;20719;-76
2021/01/26 19:08:33;;;;;;;9.90;7.17;;;;;;;4.17;64.71;98066.41;8302472;28;20241;-76
2021/01/26 19:12:36;;;;;;;16.97;7.33;;;;;;;8.29;73.90;98068.97;8304180;28;20236;-78
2021/01/26 19:16:38;;;;;;;11.47;6.43;;;;;;;8.73;64.08;98065.78;8304463;28;20207;-77